createdAt,value
2022-10-22T00:00:24.585Z,16
2022-10-22T00:15:24.099Z,15
2022-10-22T00:30:24.384Z,17
2022-10-22T00:45:23.975Z,13
2022-10-22T01:00:23.837Z,12
2022-10-22T01:15:24.217Z,13
2022-10-22T01:30:24.076Z,12
2022-10-22T01:45:24.070Z,11
2022-10-22T02:00:24.581Z,14
2022-10-22T02:15:24.529Z,13
2022-10-22T02:30:24.399Z,14
2022-10-22T02:45:24.062Z,19
2022-10-22T03:00:23.990Z,12
2022-10-22T03:15:24.220Z,12
2022-10-22T03:30:24.144Z,13
2022-10-22T03:45:23.959Z,22
2022-10-22T04:00:24.413Z,14
2022-10-22T04:15:24.591Z,15
2022-10-22T04:30:24.787Z,13
2022-10-22T04:45:24.092Z,15
2022-10-22T05:00:24.383Z,17
2022-10-22T05:15:24.855Z,17
2022-10-22T05:30:24.050Z,18
2022-10-22T05:45:23.938Z,17
2022-10-22T06:00:24.127Z,16
2022-10-22T06:15:24.345Z,16
2022-10-22T06:30:24.621Z,18
2022-10-22T06:41:16.910Z,17
2022-10-22T06:46:05.454Z,22
2022-10-22T07:01:05.802Z,21
2022-10-22T07:16:05.154Z,22
2022-10-22T07:31:05.476Z,23
2022-10-22T07:46:05.219Z,19
2022-10-22T08:01:05.391Z,23
2022-10-22T08:16:05.654Z,21
2022-10-22T08:31:05.862Z,20
2022-10-22T08:46:05.800Z,22
2022-10-22T09:01:05.207Z,27
2022-10-22T09:16:05.726Z,28
2022-10-22T09:31:05.808Z,38
2022-10-22T09:46:05.053Z,25
2022-10-22T10:01:05.330Z,23
2022-10-22T10:16:05.481Z,30
2022-10-22T10:31:05.541Z,35
2022-10-22T10:46:05.671Z,36
2022-10-22T11:01:05.739Z,38
2022-10-22T11:16:05.753Z,34
2022-10-22T11:31:05.519Z,43
2022-10-22T11:46:05.659Z,37
2022-10-22T12:01:05.653Z,34
2022-10-22T12:16:05.761Z,48
2022-10-22T12:31:05.857Z,34
2022-10-22T12:46:04.933Z,35
2022-10-22T13:01:04.883Z,34
2022-10-22T13:16:05.016Z,42
2022-10-22T13:31:04.916Z,43
2022-10-22T13:46:05.300Z,40
2022-10-22T14:01:05.264Z,45
2022-10-22T14:16:05.321Z,41
2022-10-22T14:31:04.690Z,41
2022-10-22T14:46:05.091Z,46
2022-10-22T15:01:05.487Z,51
2022-10-22T15:16:05.396Z,61
2022-10-22T15:31:05.200Z,53
2022-10-22T15:46:04.696Z,59
2022-10-22T16:01:05.378Z,77
2022-10-22T16:16:05.463Z,76
2022-10-22T16:31:06.515Z,78
2022-10-22T16:46:05.230Z,104
2022-10-22T17:01:05.098Z,106
2022-10-22T17:16:04.929Z,112
2022-10-22T17:31:04.529Z,140
2022-10-22T17:46:05.109Z,87
2022-10-22T18:01:04.931Z,124
2022-10-22T18:16:05.528Z,125
2022-10-22T18:31:05.698Z,133
2022-10-22T18:46:05.262Z,122
2022-10-22T19:01:05.820Z,96
2022-10-22T19:16:05.119Z,85
2022-10-22T19:31:05.273Z,88
2022-10-22T19:46:05.277Z,96
2022-10-22T20:01:05.353Z,85
2022-10-22T20:16:05.538Z,93
2022-10-22T20:31:05.478Z,80
2022-10-22T20:46:05.024Z,82
2022-10-22T21:01:05.541Z,85
2022-10-22T21:16:05.478Z,81
2022-10-22T21:31:05.538Z,103
2022-10-22T21:46:08.552Z,85
2022-10-22T22:01:05.698Z,89
2022-10-22T22:16:05.480Z,84
2022-10-22T22:31:05.530Z,77
2022-10-22T22:46:05.565Z,75
2022-10-22T23:01:05.684Z,70
2022-10-22T23:16:05.160Z,66
2022-10-22T23:31:05.248Z,88
2022-10-22T23:46:05.486Z,65
